RYR9355 EGHH-LFMK
Flight info
| Callsign | RYR9355 |
|---|---|
| Flight time | 1h 31m |
| Altitude | 33000 |
| Route | SAM Y8 GWC UN859 SOPIL DCT BALAN DCT EVPOK DCT NARAK DCT GAI |
| Aircraft | B38M/M-SADE3FGILRWY/SB1 |
Departure
| Time | 2026-05-07 06:09 |
|---|---|
| Airport | Bournemouth Airport (EGHH) |
Arrival
| Time | 2026-05-07 07:41 |
|---|---|
| Airport | Carcassonne Salvaza Airport (LFMK) |
| Time | Latitude | Longitude | Altitude | Speed | Heading |
|---|---|---|---|---|---|
| 2026-05-07 05:55 | 50.77844 | -1.83380 | 48 ft | 0 kts | 86° |
| 2026-05-07 06:01 | 50.77843 | -1.83407 | 48 ft | 4 kts | 84° |
| 2026-05-07 06:01 | 50.77836 | -1.83445 | 44 ft | 4 kts | 52° |
| 2026-05-07 06:02 | 50.77816 | -1.83468 | 43 ft | 4 kts | 9° |
| 2026-05-07 06:02 | 50.77804 | -1.83469 | 46 ft | 1 kts | 358° |
| 2026-05-07 06:02 | 50.77803 | -1.83469 | 46 ft | 0 kts | 358° |
| 2026-05-07 06:04 | 50.77806 | -1.83469 | 46 ft | 2 kts | 358° |
| 2026-05-07 06:05 | 50.77872 | -1.83477 | 48 ft | 17 kts | 350° |
| 2026-05-07 06:05 | 50.78009 | -1.83543 | 48 ft | 23 kts | 343° |
| 2026-05-07 06:05 | 50.78109 | -1.83640 | 47 ft | 14 kts | 279° |
| 2026-05-07 06:05 | 50.78073 | -1.83847 | 46 ft | 23 kts | 254° |
| 2026-05-07 06:06 | 50.78027 | -1.84112 | 45 ft | 26 kts | 254° |
| 2026-05-07 06:06 | 50.77976 | -1.84386 | 45 ft | 26 kts | 259° |
| 2026-05-07 06:06 | 50.77939 | -1.84661 | 46 ft | 26 kts | 256° |
| 2026-05-07 06:06 | 50.77891 | -1.84943 | 49 ft | 27 kts | 255° |
| 2026-05-07 06:07 | 50.77849 | -1.85151 | 50 ft | 19 kts | 262° |
| 2026-05-07 06:07 | 50.77819 | -1.85366 | 50 ft | 21 kts | 257° |
| 2026-05-07 06:07 | 50.77807 | -1.85450 | 50 ft | 0 kts | 257° |
| 2026-05-07 06:08 | 50.77806 | -1.85451 | 50 ft | 1 kts | 257° |
| 2026-05-07 06:08 | 50.77800 | -1.85497 | 50 ft | 11 kts | 257° |
| 2026-05-07 06:08 | 50.77773 | -1.85667 | 48 ft | 14 kts | 238° |
| 2026-05-07 06:08 | 50.77726 | -1.85756 | 48 ft | 8 kts | 316° |
| 2026-05-07 06:09 | 50.77767 | -1.85687 | 46 ft | 22 kts | 73° |
| 2026-05-07 06:09 | 50.77888 | -1.84977 | 49 ft | 112 kts | 75° |
| 2026-05-07 06:09 | 50.78163 | -1.83416 | 183 ft | 172 kts | 73° |
| 2026-05-07 06:09 | 50.78501 | -1.81608 | 1257 ft | 170 kts | 73° |
| 2026-05-07 06:10 | 50.78811 | -1.79813 | 2265 ft | 176 kts | 76° |
| 2026-05-07 06:10 | 50.79136 | -1.77801 | 2811 ft | 202 kts | 75° |
| 2026-05-07 06:10 | 50.79509 | -1.75517 | 3441 ft | 226 kts | 75° |
| 2026-05-07 06:10 | 50.79923 | -1.73014 | 4165 ft | 245 kts | 75° |
| 2026-05-07 06:11 | 50.80557 | -1.70409 | 4890 ft | 264 kts | 56° |
| 2026-05-07 06:11 | 50.81743 | -1.68185 | 5945 ft | 265 kts | 46° |
| 2026-05-07 06:11 | 50.82838 | -1.65795 | 6920 ft | 273 kts | 58° |
| 2026-05-07 06:11 | 50.83834 | -1.63212 | 7915 ft | 277 kts | 58° |
| 2026-05-07 06:12 | 50.84871 | -1.60605 | 8890 ft | 283 kts | 57° |
| 2026-05-07 06:12 | 50.85938 | -1.57955 | 9862 ft | 288 kts | 57° |
| 2026-05-07 06:12 | 50.87036 | -1.55254 | 10620 ft | 299 kts | 57° |
| 2026-05-07 06:12 | 50.88197 | -1.52412 | 11204 ft | 315 kts | 57° |
| 2026-05-07 06:13 | 50.89394 | -1.49490 | 11893 ft | 325 kts | 57° |
| 2026-05-07 06:13 | 50.90629 | -1.46477 | 12819 ft | 328 kts | 57° |
| 2026-05-07 06:13 | 50.91881 | -1.43419 | 13686 ft | 333 kts | 57° |
| 2026-05-07 06:13 | 50.93152 | -1.40314 | 14484 ft | 338 kts | 57° |
| 2026-05-07 06:14 | 50.94382 | -1.37120 | 15259 ft | 342 kts | 66° |
| 2026-05-07 06:14 | 50.94951 | -1.33469 | 16077 ft | 344 kts | 88° |
| 2026-05-07 06:14 | 50.94663 | -1.29681 | 16824 ft | 349 kts | 105° |
| 2026-05-07 06:14 | 50.94054 | -1.25932 | 17575 ft | 354 kts | 104° |
| 2026-05-07 06:15 | 50.93436 | -1.22139 | 18320 ft | 358 kts | 105° |
| 2026-05-07 06:15 | 50.92797 | -1.18295 | 18967 ft | 362 kts | 105° |
| 2026-05-07 06:15 | 50.92146 | -1.14420 | 19618 ft | 366 kts | 105° |
| 2026-05-07 06:15 | 50.91485 | -1.10506 | 20246 ft | 370 kts | 105° |
| 2026-05-07 06:16 | 50.90815 | -1.06556 | 20887 ft | 373 kts | 105° |
| 2026-05-07 06:16 | 50.90138 | -1.02571 | 21509 ft | 377 kts | 105° |
| 2026-05-07 06:16 | 50.89449 | -0.98532 | 22123 ft | 380 kts | 105° |
| 2026-05-07 06:16 | 50.88755 | -0.94472 | 22729 ft | 384 kts | 105° |
| 2026-05-07 06:17 | 50.88053 | -0.90371 | 23324 ft | 388 kts | 105° |
| 2026-05-07 06:17 | 50.87343 | -0.86234 | 23852 ft | 391 kts | 105° |
| 2026-05-07 06:17 | 50.86624 | -0.82054 | 24320 ft | 395 kts | 105° |
| 2026-05-07 06:17 | 50.85652 | -0.78043 | 24795 ft | 396 kts | 121° |
| 2026-05-07 06:18 | 50.83935 | -0.74645 | 25272 ft | 397 kts | 139° |
| 2026-05-07 06:18 | 50.81720 | -0.72039 | 25709 ft | 399 kts | 147° |
| 2026-05-07 06:18 | 50.79406 | -0.69558 | 26163 ft | 402 kts | 147° |
| 2026-05-07 06:18 | 50.77067 | -0.67110 | 26631 ft | 405 kts | 148° |
| 2026-05-07 06:19 | 50.74702 | -0.64672 | 27078 ft | 408 kts | 148° |
| 2026-05-07 06:19 | 50.72311 | -0.62231 | 27543 ft | 410 kts | 148° |
| 2026-05-07 06:19 | 50.69901 | -0.59783 | 27982 ft | 413 kts | 148° |
| 2026-05-07 06:19 | 50.67475 | -0.57325 | 28416 ft | 416 kts | 148° |
| 2026-05-07 06:20 | 50.65035 | -0.54856 | 28839 ft | 418 kts | 149° |
| 2026-05-07 06:20 | 50.62574 | -0.52371 | 29241 ft | 421 kts | 149° |
| 2026-05-07 06:20 | 50.60101 | -0.49875 | 29635 ft | 424 kts | 149° |
| 2026-05-07 06:20 | 50.57608 | -0.47363 | 30043 ft | 426 kts | 149° |
| 2026-05-07 06:21 | 50.55099 | -0.44838 | 30389 ft | 429 kts | 149° |
| 2026-05-07 06:21 | 50.52576 | -0.42303 | 30735 ft | 431 kts | 149° |
| 2026-05-07 06:21 | 50.50047 | -0.39764 | 31154 ft | 431 kts | 149° |
| 2026-05-07 06:21 | 50.47561 | -0.37272 | 31597 ft | 430 kts | 149° |
| 2026-05-07 06:22 | 50.45044 | -0.34752 | 32045 ft | 429 kts | 149° |
| 2026-05-07 06:22 | 50.40020 | -0.29732 | 32889 ft | 427 kts | 149° |
| 2026-05-07 06:22 | 50.37500 | -0.27219 | 33074 ft | 429 kts | 149° |
| 2026-05-07 06:23 | 50.32485 | -0.22227 | 33056 ft | 425 kts | 149° |
| 2026-05-07 06:23 | 50.27488 | -0.17265 | 33048 ft | 425 kts | 149° |
| 2026-05-07 06:24 | 50.22523 | -0.12348 | 33051 ft | 425 kts | 149° |
| 2026-05-07 06:24 | 50.17523 | -0.07409 | 33044 ft | 426 kts | 149° |
| 2026-05-07 06:25 | 50.12510 | -0.02466 | 33048 ft | 426 kts | 149° |
| 2026-05-07 06:25 | 50.09928 | -0.00189 | 33026 ft | 423 kts | 160° |
| 2026-05-07 06:25 | 50.07121 | 0.01036 | 33078 ft | 420 kts | 168° |
| 2026-05-07 06:26 | 50.01444 | 0.03355 | 33054 ft | 422 kts | 167° |
| 2026-05-07 06:26 | 49.95759 | 0.05614 | 33039 ft | 422 kts | 168° |
| 2026-05-07 06:27 | 49.90098 | 0.07838 | 33051 ft | 422 kts | 168° |
| 2026-05-07 06:27 | 49.84391 | 0.10073 | 33048 ft | 422 kts | 168° |
| 2026-05-07 06:28 | 49.78685 | 0.12303 | 33048 ft | 422 kts | 168° |
| 2026-05-07 06:28 | 49.72985 | 0.14524 | 33038 ft | 422 kts | 168° |
| 2026-05-07 06:29 | 49.67311 | 0.16761 | 33050 ft | 423 kts | 167° |
| 2026-05-07 06:29 | 49.61624 | 0.19059 | 33047 ft | 423 kts | 167° |
| 2026-05-07 06:30 | 49.55924 | 0.21350 | 33047 ft | 423 kts | 167° |
| 2026-05-07 06:30 | 49.50223 | 0.23635 | 33037 ft | 423 kts | 167° |
| 2026-05-07 06:31 | 49.44515 | 0.25918 | 33049 ft | 423 kts | 167° |
| 2026-05-07 06:31 | 49.38841 | 0.28182 | 33051 ft | 423 kts | 167° |
| 2026-05-07 06:32 | 49.33133 | 0.30454 | 33049 ft | 423 kts | 167° |
| 2026-05-07 06:32 | 49.28402 | 0.32430 | 33044 ft | 424 kts | 166° |
| 2026-05-07 06:33 | 49.22719 | 0.34829 | 33048 ft | 424 kts | 167° |
| 2026-05-07 06:33 | 49.17033 | 0.37218 | 33047 ft | 424 kts | 167° |
| 2026-05-07 06:34 | 49.11342 | 0.39603 | 33046 ft | 424 kts | 167° |
| 2026-05-07 06:34 | 49.05656 | 0.41981 | 33042 ft | 424 kts | 166° |
| 2026-05-07 06:35 | 48.99966 | 0.44355 | 33051 ft | 424 kts | 166° |
| 2026-05-07 06:35 | 48.94276 | 0.46723 | 33050 ft | 424 kts | 166° |
| 2026-05-07 06:36 | 48.88625 | 0.49069 | 33048 ft | 424 kts | 166° |
| 2026-05-07 06:36 | 48.82934 | 0.51426 | 33048 ft | 424 kts | 166° |
| 2026-05-07 06:37 | 48.77233 | 0.53728 | 33052 ft | 424 kts | 167° |
| 2026-05-07 06:37 | 48.71523 | 0.55970 | 33051 ft | 424 kts | 167° |
| 2026-05-07 06:38 | 48.65812 | 0.58212 | 33049 ft | 423 kts | 167° |
| 2026-05-07 06:38 | 48.60109 | 0.60448 | 33046 ft | 423 kts | 167° |
| 2026-05-07 06:39 | 48.54444 | 0.62663 | 33049 ft | 423 kts | 167° |
| 2026-05-07 06:39 | 48.48754 | 0.64962 | 33051 ft | 423 kts | 166° |
| 2026-05-07 06:40 | 48.43068 | 0.67271 | 33041 ft | 423 kts | 166° |
| 2026-05-07 06:40 | 48.37385 | 0.69571 | 33045 ft | 423 kts | 166° |
| 2026-05-07 06:41 | 48.31702 | 0.71866 | 33045 ft | 423 kts | 166° |
| 2026-05-07 06:41 | 48.26017 | 0.74156 | 33044 ft | 423 kts | 166° |
| 2026-05-07 06:42 | 48.20365 | 0.76383 | 33038 ft | 422 kts | 167° |
| 2026-05-07 06:42 | 48.14680 | 0.78621 | 33039 ft | 422 kts | 167° |
| 2026-05-07 06:43 | 48.08993 | 0.80856 | 33044 ft | 422 kts | 167° |
| 2026-05-07 06:43 | 48.03308 | 0.83084 | 33040 ft | 422 kts | 167° |
| 2026-05-07 06:44 | 47.97625 | 0.85307 | 33034 ft | 422 kts | 167° |
| 2026-05-07 06:44 | 47.91931 | 0.87529 | 33039 ft | 422 kts | 167° |
| 2026-05-07 06:45 | 47.86273 | 0.89732 | 33037 ft | 422 kts | 167° |
| 2026-05-07 06:45 | 47.80593 | 0.91937 | 33041 ft | 422 kts | 167° |
| 2026-05-07 06:46 | 47.74902 | 0.94140 | 33046 ft | 422 kts | 167° |
| 2026-05-07 06:46 | 47.69206 | 0.96341 | 33043 ft | 422 kts | 167° |
| 2026-05-07 06:47 | 47.63514 | 0.98535 | 33043 ft | 422 kts | 167° |
| 2026-05-07 06:47 | 47.57853 | 1.00713 | 33041 ft | 422 kts | 167° |
| 2026-05-07 06:48 | 47.52159 | 1.02898 | 33043 ft | 422 kts | 167° |
| 2026-05-07 06:48 | 47.46475 | 1.05075 | 33046 ft | 422 kts | 167° |
| 2026-05-07 06:49 | 47.40719 | 1.06361 | 33058 ft | 416 kts | 185° |
| 2026-05-07 06:49 | 47.34885 | 1.06232 | 33035 ft | 419 kts | 182° |
| 2026-05-07 06:50 | 47.29049 | 1.06116 | 33033 ft | 419 kts | 182° |
| 2026-05-07 06:50 | 47.23216 | 1.05982 | 33030 ft | 419 kts | 182° |
| 2026-05-07 06:51 | 47.17386 | 1.05845 | 33016 ft | 419 kts | 182° |
| 2026-05-07 06:51 | 47.11600 | 1.05710 | 33029 ft | 418 kts | 183° |
| 2026-05-07 06:52 | 47.05779 | 1.05575 | 33029 ft | 418 kts | 183° |
| 2026-05-07 06:52 | 46.99959 | 1.05366 | 33016 ft | 418 kts | 184° |
| 2026-05-07 06:53 | 46.94130 | 1.05115 | 33018 ft | 418 kts | 184° |
| 2026-05-07 06:53 | 46.88320 | 1.04870 | 33025 ft | 417 kts | 184° |
| 2026-05-07 06:54 | 46.82514 | 1.04626 | 33024 ft | 417 kts | 184° |
| 2026-05-07 06:54 | 46.76748 | 1.04384 | 33022 ft | 417 kts | 184° |
| 2026-05-07 06:55 | 46.70907 | 1.04139 | 33023 ft | 417 kts | 184° |
| 2026-05-07 06:55 | 46.65147 | 1.03898 | 33019 ft | 417 kts | 184° |
| 2026-05-07 06:56 | 46.59336 | 1.03656 | 33015 ft | 417 kts | 184° |
| 2026-05-07 06:56 | 46.53536 | 1.03415 | 33009 ft | 416 kts | 184° |
| 2026-05-07 06:57 | 46.50651 | 1.03682 | 32995 ft | 418 kts | 170° |
| 2026-05-07 06:57 | 46.47816 | 1.04679 | 33008 ft | 420 kts | 170° |
| 2026-05-07 06:57 | 46.42112 | 1.06526 | 33012 ft | 420 kts | 169° |
| 2026-05-07 06:58 | 46.36417 | 1.08418 | 33010 ft | 420 kts | 169° |
| 2026-05-07 06:58 | 46.30732 | 1.10312 | 33004 ft | 419 kts | 169° |
| 2026-05-07 06:59 | 46.25042 | 1.12204 | 33007 ft | 419 kts | 169° |
| 2026-05-07 06:59 | 46.19397 | 1.14078 | 32999 ft | 419 kts | 169° |
| 2026-05-07 07:00 | 46.13711 | 1.15961 | 32991 ft | 419 kts | 170° |
| 2026-05-07 07:00 | 46.08023 | 1.17840 | 32997 ft | 418 kts | 170° |
| 2026-05-07 07:01 | 46.02347 | 1.19712 | 32995 ft | 419 kts | 170° |
| 2026-05-07 07:01 | 45.96699 | 1.21571 | 32996 ft | 419 kts | 170° |
| 2026-05-07 07:02 | 45.91017 | 1.23437 | 32992 ft | 419 kts | 170° |
| 2026-05-07 07:02 | 45.85335 | 1.25299 | 32992 ft | 419 kts | 170° |
| 2026-05-07 07:03 | 45.79651 | 1.27158 | 32995 ft | 419 kts | 170° |
| 2026-05-07 07:03 | 45.73971 | 1.29011 | 32987 ft | 418 kts | 171° |
| 2026-05-07 07:04 | 45.68309 | 1.30854 | 32992 ft | 417 kts | 171° |
| 2026-05-07 07:04 | 45.62646 | 1.32695 | 32993 ft | 417 kts | 171° |
| 2026-05-07 07:05 | 45.57021 | 1.34519 | 32973 ft | 417 kts | 171° |
| 2026-05-07 07:05 | 45.51373 | 1.36348 | 32987 ft | 415 kts | 171° |
| 2026-05-07 07:06 | 45.45733 | 1.38169 | 32990 ft | 415 kts | 171° |
| 2026-05-07 07:06 | 45.40138 | 1.39972 | 32991 ft | 415 kts | 171° |
| 2026-05-07 07:07 | 45.34507 | 1.41783 | 32993 ft | 414 kts | 171° |
| 2026-05-07 07:07 | 45.28882 | 1.43589 | 33010 ft | 414 kts | 171° |
| 2026-05-07 07:08 | 45.23256 | 1.45391 | 33009 ft | 414 kts | 171° |
| 2026-05-07 07:08 | 45.17632 | 1.47189 | 33008 ft | 414 kts | 171° |
| 2026-05-07 07:09 | 45.12052 | 1.48969 | 33018 ft | 413 kts | 171° |
| 2026-05-07 07:09 | 45.06439 | 1.50756 | 33020 ft | 413 kts | 171° |
| 2026-05-07 07:10 | 45.00829 | 1.52539 | 33022 ft | 413 kts | 171° |
| 2026-05-07 07:10 | 44.95210 | 1.54321 | 32994 ft | 414 kts | 171° |
| 2026-05-07 07:11 | 44.89581 | 1.56102 | 32999 ft | 414 kts | 171° |
| 2026-05-07 07:11 | 44.83954 | 1.57880 | 33002 ft | 414 kts | 171° |
| 2026-05-07 07:12 | 44.78356 | 1.59645 | 32828 ft | 406 kts | 171° |
| 2026-05-07 07:12 | 44.75602 | 1.60512 | 32264 ft | 405 kts | 171° |
| 2026-05-07 07:12 | 44.72851 | 1.61377 | 31718 ft | 404 kts | 171° |
| 2026-05-07 07:13 | 44.70115 | 1.62237 | 31262 ft | 401 kts | 171° |
| 2026-05-07 07:13 | 44.67403 | 1.63088 | 30848 ft | 397 kts | 171° |
| 2026-05-07 07:13 | 44.64718 | 1.63929 | 30412 ft | 395 kts | 171° |
| 2026-05-07 07:13 | 44.62043 | 1.64767 | 29957 ft | 392 kts | 171° |
| 2026-05-07 07:14 | 44.59386 | 1.65599 | 29441 ft | 390 kts | 171° |
| 2026-05-07 07:14 | 44.56753 | 1.66422 | 29019 ft | 386 kts | 171° |
| 2026-05-07 07:14 | 44.54153 | 1.67234 | 28616 ft | 380 kts | 171° |
| 2026-05-07 07:14 | 44.51620 | 1.68025 | 28214 ft | 374 kts | 171° |
| 2026-05-07 07:15 | 44.49096 | 1.68812 | 27809 ft | 368 kts | 171° |
| 2026-05-07 07:15 | 44.46610 | 1.69586 | 27426 ft | 363 kts | 171° |
| 2026-05-07 07:15 | 44.44159 | 1.70349 | 27042 ft | 358 kts | 171° |
| 2026-05-07 07:15 | 44.41744 | 1.71100 | 26666 ft | 353 kts | 171° |
| 2026-05-07 07:16 | 44.39357 | 1.71842 | 26285 ft | 349 kts | 171° |
| 2026-05-07 07:16 | 44.37003 | 1.72573 | 25931 ft | 344 kts | 171° |
| 2026-05-07 07:16 | 44.34679 | 1.73295 | 25572 ft | 339 kts | 171° |
| 2026-05-07 07:16 | 44.32386 | 1.74006 | 25213 ft | 335 kts | 170° |
| 2026-05-07 07:17 | 44.30152 | 1.74696 | 24878 ft | 331 kts | 171° |
| 2026-05-07 07:17 | 44.27889 | 1.75206 | 24478 ft | 327 kts | 174° |
| 2026-05-07 07:17 | 44.25649 | 1.75689 | 24139 ft | 324 kts | 173° |
| 2026-05-07 07:17 | 44.23429 | 1.76177 | 23815 ft | 324 kts | 173° |
| 2026-05-07 07:18 | 44.21182 | 1.76676 | 23462 ft | 329 kts | 173° |
| 2026-05-07 07:18 | 44.18914 | 1.77181 | 23056 ft | 331 kts | 173° |
| 2026-05-07 07:18 | 44.16644 | 1.77688 | 22703 ft | 330 kts | 173° |
| 2026-05-07 07:18 | 44.14374 | 1.78195 | 22357 ft | 329 kts | 173° |
| 2026-05-07 07:19 | 44.12142 | 1.78694 | 22017 ft | 327 kts | 173° |
| 2026-05-07 07:19 | 44.09900 | 1.79194 | 21678 ft | 325 kts | 173° |
| 2026-05-07 07:19 | 44.07672 | 1.79691 | 21337 ft | 324 kts | 173° |
| 2026-05-07 07:19 | 44.05452 | 1.80186 | 21006 ft | 322 kts | 173° |
| 2026-05-07 07:20 | 44.03243 | 1.80677 | 20671 ft | 320 kts | 173° |
| 2026-05-07 07:20 | 44.01050 | 1.81165 | 20330 ft | 318 kts | 173° |
| 2026-05-07 07:20 | 43.99573 | 1.81494 | 20113 ft | 317 kts | 173° |
| 2026-05-07 07:20 | 43.97428 | 1.81970 | 19792 ft | 315 kts | 173° |
| 2026-05-07 07:21 | 43.95263 | 1.82415 | 19442 ft | 314 kts | 177° |
| 2026-05-07 07:21 | 43.93103 | 1.82664 | 19118 ft | 309 kts | 177° |
| 2026-05-07 07:21 | 43.90975 | 1.82920 | 18815 ft | 304 kts | 177° |
| 2026-05-07 07:21 | 43.88879 | 1.83181 | 18513 ft | 300 kts | 177° |
| 2026-05-07 07:22 | 43.86818 | 1.83441 | 18192 ft | 295 kts | 177° |
| 2026-05-07 07:22 | 43.84784 | 1.83701 | 17854 ft | 291 kts | 176° |
| 2026-05-07 07:22 | 43.82750 | 1.83961 | 17531 ft | 297 kts | 176° |
| 2026-05-07 07:22 | 43.80681 | 1.84225 | 17207 ft | 301 kts | 176° |
| 2026-05-07 07:23 | 43.78583 | 1.84494 | 16894 ft | 303 kts | 176° |
| 2026-05-07 07:23 | 43.76481 | 1.84763 | 16591 ft | 303 kts | 176° |
| 2026-05-07 07:23 | 43.74384 | 1.85031 | 16259 ft | 302 kts | 176° |
| 2026-05-07 07:23 | 43.72288 | 1.85299 | 15944 ft | 302 kts | 176° |
| 2026-05-07 07:24 | 43.70223 | 1.85563 | 15627 ft | 301 kts | 176° |
| 2026-05-07 07:24 | 43.68139 | 1.85828 | 15308 ft | 300 kts | 176° |
| 2026-05-07 07:24 | 43.66060 | 1.86093 | 15000 ft | 300 kts | 176° |
| 2026-05-07 07:24 | 43.63982 | 1.86358 | 14680 ft | 299 kts | 176° |
| 2026-05-07 07:25 | 43.59841 | 1.86885 | 14042 ft | 298 kts | 176° |
| 2026-05-07 07:25 | 43.57778 | 1.87147 | 13719 ft | 297 kts | 176° |
| 2026-05-07 07:25 | 43.55723 | 1.87408 | 13371 ft | 296 kts | 176° |
| 2026-05-07 07:26 | 43.53670 | 1.87668 | 13044 ft | 295 kts | 176° |
| 2026-05-07 07:26 | 43.51631 | 1.87927 | 12728 ft | 294 kts | 176° |
| 2026-05-07 07:26 | 43.49624 | 1.88182 | 12412 ft | 292 kts | 176° |
| 2026-05-07 07:26 | 43.47605 | 1.88438 | 12108 ft | 291 kts | 176° |
| 2026-05-07 07:27 | 43.45593 | 1.88692 | 11723 ft | 290 kts | 177° |
| 2026-05-07 07:27 | 43.43589 | 1.88946 | 11272 ft | 288 kts | 177° |
| 2026-05-07 07:27 | 43.41633 | 1.89505 | 10823 ft | 288 kts | 160° |
| 2026-05-07 07:27 | 43.39926 | 1.90932 | 10430 ft | 289 kts | 139° |
| 2026-05-07 07:28 | 43.38664 | 1.93088 | 10080 ft | 292 kts | 119° |
| 2026-05-07 07:28 | 43.37976 | 1.95713 | 9729 ft | 292 kts | 102° |
| 2026-05-07 07:28 | 43.37598 | 1.98455 | 9359 ft | 291 kts | 100° |
| 2026-05-07 07:28 | 43.37254 | 2.01192 | 9029 ft | 290 kts | 99° |
| 2026-05-07 07:29 | 43.36843 | 2.03897 | 8712 ft | 288 kts | 106° |
| 2026-05-07 07:29 | 43.36300 | 2.06540 | 8395 ft | 287 kts | 106° |
| 2026-05-07 07:29 | 43.35777 | 2.09144 | 8085 ft | 285 kts | 105° |
| 2026-05-07 07:29 | 43.35258 | 2.11772 | 7765 ft | 284 kts | 105° |
| 2026-05-07 07:30 | 43.34747 | 2.14383 | 7450 ft | 283 kts | 105° |
| 2026-05-07 07:30 | 43.34240 | 2.16989 | 7140 ft | 282 kts | 105° |
| 2026-05-07 07:30 | 43.33738 | 2.19577 | 6875 ft | 279 kts | 105° |
| 2026-05-07 07:30 | 43.33241 | 2.22142 | 6620 ft | 278 kts | 106° |
| 2026-05-07 07:31 | 43.32749 | 2.24685 | 6467 ft | 271 kts | 105° |
| 2026-05-07 07:31 | 43.32264 | 2.27178 | 6348 ft | 271 kts | 105° |
| 2026-05-07 07:31 | 43.31775 | 2.29697 | 6171 ft | 274 kts | 105° |
| 2026-05-07 07:31 | 43.31285 | 2.32221 | 5990 ft | 273 kts | 105° |
| 2026-05-07 07:32 | 43.30795 | 2.34729 | 5815 ft | 269 kts | 105° |
| 2026-05-07 07:32 | 43.30319 | 2.37175 | 5569 ft | 261 kts | 105° |
| 2026-05-07 07:32 | 43.29855 | 2.39544 | 5340 ft | 253 kts | 105° |
| 2026-05-07 07:32 | 43.29407 | 2.41840 | 5119 ft | 245 kts | 105° |
| 2026-05-07 07:33 | 43.28971 | 2.44064 | 4895 ft | 239 kts | 104° |
| 2026-05-07 07:33 | 43.28543 | 2.46245 | 4646 ft | 233 kts | 104° |
| 2026-05-07 07:33 | 43.28132 | 2.48339 | 4397 ft | 227 kts | 104° |
| 2026-05-07 07:33 | 43.27725 | 2.50412 | 4150 ft | 222 kts | 104° |
| 2026-05-07 07:34 | 43.27327 | 2.52439 | 3898 ft | 218 kts | 104° |
| 2026-05-07 07:34 | 43.26936 | 2.54427 | 3661 ft | 214 kts | 104° |
| 2026-05-07 07:34 | 43.26543 | 2.56373 | 3491 ft | 210 kts | 108° |
| 2026-05-07 07:34 | 43.25747 | 2.58003 | 3477 ft | 203 kts | 144° |
| 2026-05-07 07:35 | 43.24504 | 2.58728 | 3522 ft | 191 kts | 175° |
| 2026-05-07 07:35 | 43.23188 | 2.58726 | 3522 ft | 189 kts | 186° |
| 2026-05-07 07:35 | 43.21873 | 2.58602 | 3503 ft | 189 kts | 187° |
| 2026-05-07 07:35 | 43.20645 | 2.58122 | 3433 ft | 181 kts | 219° |
| 2026-05-07 07:36 | 43.19920 | 2.56836 | 3430 ft | 166 kts | 255° |
| 2026-05-07 07:36 | 43.19797 | 2.55301 | 3503 ft | 161 kts | 274° |
| 2026-05-07 07:36 | 43.19861 | 2.53775 | 3539 ft | 161 kts | 275° |
| 2026-05-07 07:36 | 43.19945 | 2.52235 | 3513 ft | 163 kts | 276° |
| 2026-05-07 07:37 | 43.20041 | 2.50682 | 3508 ft | 163 kts | 276° |
| 2026-05-07 07:37 | 43.20146 | 2.49132 | 3375 ft | 164 kts | 276° |
| 2026-05-07 07:37 | 43.20259 | 2.47568 | 3099 ft | 166 kts | 277° |
| 2026-05-07 07:37 | 43.20376 | 2.45988 | 2821 ft | 167 kts | 277° |
| 2026-05-07 07:38 | 43.20494 | 2.44438 | 2562 ft | 160 kts | 277° |
| 2026-05-07 07:38 | 43.20609 | 2.42972 | 2307 ft | 152 kts | 277° |
| 2026-05-07 07:38 | 43.20729 | 2.41539 | 2038 ft | 150 kts | 276° |
| 2026-05-07 07:38 | 43.20833 | 2.40147 | 1829 ft | 143 kts | 276° |
| 2026-05-07 07:39 | 43.20941 | 2.38811 | 1603 ft | 139 kts | 276° |
| 2026-05-07 07:39 | 43.21046 | 2.37506 | 1368 ft | 137 kts | 276° |
| 2026-05-07 07:39 | 43.21147 | 2.36195 | 1156 ft | 140 kts | 275° |
| 2026-05-07 07:39 | 43.21263 | 2.34894 | 873 ft | 136 kts | 277° |
| 2026-05-07 07:40 | 43.21382 | 2.33608 | 749 ft | 134 kts | 274° |
| 2026-05-07 07:40 | 43.21458 | 2.32323 | 577 ft | 137 kts | 276° |
| 2026-05-07 07:40 | 43.21567 | 2.31052 | 428 ft | 128 kts | 276° |
| 2026-05-07 07:40 | 43.21644 | 2.30074 | 419 ft | 69 kts | 276° |
| 2026-05-07 07:41 | 43.21676 | 2.29881 | 422 ft | 2 kts | 239° |
| 2026-05-07 07:41 | 43.21646 | 2.29938 | 428 ft | 15 kts | 103° |
| 2026-05-07 07:41 | 43.21638 | 2.30100 | 424 ft | 19 kts | 92° |
| 2026-05-07 07:41 | 43.21625 | 2.30294 | 427 ft | 21 kts | 97° |
| 2026-05-07 07:42 | 43.21595 | 2.30473 | 419 ft | 16 kts | 142° |
| 2026-05-07 07:42 | 43.21481 | 2.30480 | 417 ft | 16 kts | 160° |
| 2026-05-07 07:42 | 43.21458 | 2.30520 | 426 ft | 0 kts | 115° |
| 2026-05-07 07:43 | 43.21452 | 2.30545 | 421 ft | 7 kts | 122° |
| 2026-05-07 07:43 | 43.21404 | 2.30570 | 426 ft | 9 kts | 191° |
| 2026-05-07 07:43 | 43.21397 | 2.30562 | 426 ft | 0 kts | 240° |